sensor_id;sensor_type;location;lat;lon;timestamp;pressure;altitude;pressure_sealevel;temperature;humidity
86383;BME280;77029;47.696;10.348;2024-03-23T00:53:50;93033.72;;;7.06;64.99
86383;BME280;77029;47.696;10.348;2024-03-23T00:56:16;93033.91;;;7.08;65.15
86383;BME280;77029;47.696;10.348;2024-03-23T00:58:42;93036.44;;;6.98;64.78
86383;BME280;77029;47.696;10.348;2024-03-23T01:01:08;93037.53;;;6.95;64.81
86383;BME280;77029;47.696;10.348;2024-03-23T01:03:34;93029.75;;;6.91;64.99
86383;BME280;77029;47.696;10.348;2024-03-23T01:06:01;93025.06;;;6.92;64.62
86383;BME280;77029;47.696;10.348;2024-03-23T01:08:27;93026.34;;;6.83;64.80
86383;BME280;77029;47.696;10.348;2024-03-23T01:10:58;93019.50;;;6.75;64.96
86383;BME280;77029;47.696;10.348;2024-03-23T01:13:24;93018.75;;;6.82;64.10
86383;BME280;77029;47.696;10.348;2024-03-23T01:15:51;93012.63;;;6.74;64.85
86383;BME280;77029;47.696;10.348;2024-03-23T01:18:18;93009.38;;;6.83;64.90
86383;BME280;77029;47.696;10.348;2024-03-23T01:20:44;93006.13;;;6.77;64.56
86383;BME280;77029;47.696;10.348;2024-03-23T01:23:11;93009.94;;;6.74;64.52
86383;BME280;77029;47.696;10.348;2024-03-23T01:25:37;93011.91;;;6.81;64.43
86383;BME280;77029;47.696;10.348;2024-03-23T01:28:04;92999.66;;;6.80;63.43
86383;BME280;77029;47.696;10.348;2024-03-23T01:30:30;92991.31;;;6.93;63.57
86383;BME280;77029;47.696;10.348;2024-03-23T01:32:56;92986.66;;;6.86;63.69
86383;BME280;77029;47.696;10.348;2024-03-23T01:35:22;92994.59;;;6.84;63.90
86383;BME280;77029;47.696;10.348;2024-03-23T01:37:48;92981.59;;;6.82;64.26
86383;BME280;77029;47.696;10.348;2024-03-23T01:40:16;92988.28;;;6.74;64.55
86383;BME280;77029;47.696;10.348;2024-03-23T01:42:42;92985.94;;;6.62;64.96
86383;BME280;77029;47.696;10.348;2024-03-23T01:45:09;92987.03;;;6.59;64.63
86383;BME280;77029;47.696;10.348;2024-03-23T01:47:38;92988.47;;;6.60;64.96
86383;BME280;77029;47.696;10.348;2024-03-23T01:50:04;92987.56;;;6.50;65.01
86383;BME280;77029;47.696;10.348;2024-03-23T01:52:31;92979.47;;;6.50;64.59
86383;BME280;77029;47.696;10.348;2024-03-23T01:54:57;92966.47;;;6.18;66.33
86383;BME280;77029;47.696;10.348;2024-03-23T01:57:23;92972.25;;;6.15;65.98
86383;BME280;77029;47.696;10.348;2024-03-23T01:59:49;92982.69;;;6.11;66.30
86383;BME280;77029;47.696;10.348;2024-03-23T02:02:24;92972.59;;;6.19;66.55
86383;BME280;77029;47.696;10.348;2024-03-23T02:04:50;92962.50;;;6.12;65.84
86383;BME280;77029;47.696;10.348;2024-03-23T02:07:16;92967.34;;;6.05;66.61
86383;BME280;77029;47.696;10.348;2024-03-23T02:09:43;92963.75;;;6.03;66.77
86383;BME280;77029;47.696;10.348;2024-03-23T02:12:10;92954.91;;;6.02;66.36
86383;BME280;77029;47.696;10.348;2024-03-23T02:14:36;92957.38;;;5.85;67.01
86383;BME280;77029;47.696;10.348;2024-03-23T02:17:02;92950.91;;;5.88;67.31
86383;BME280;77029;47.696;10.348;2024-03-23T02:19:28;92956.13;;;5.86;66.66
86383;BME280;77029;47.696;10.348;2024-03-23T02:21:55;92952.69;;;5.86;67.36
86383;BME280;77029;47.696;10.348;2024-03-23T02:24:21;92955.91;;;5.69;67.82
86383;BME280;77029;47.696;10.348;2024-03-23T02:26:47;92951.06;;;5.75;68.01
86383;BME280;77029;47.696;10.348;2024-03-23T02:29:14;92947.97;;;5.63;68.58
86383;BME280;77029;47.696;10.348;2024-03-23T02:31:40;92941.50;;;5.66;68.34
86383;BME280;77029;47.696;10.348;2024-03-23T02:34:06;92941.09;;;5.55;68.38
86383;BME280;77029;47.696;10.348;2024-03-23T02:36:32;92938.03;;;5.51;68.19
86383;BME280;77029;47.696;10.348;2024-03-23T02:38:58;92935.00;;;5.54;68.35
86383;BME280;77029;47.696;10.348;2024-03-23T02:41:24;92943.47;;;5.58;68.15
86383;BME280;77029;47.696;10.348;2024-03-23T02:43:50;92927.59;;;5.55;68.56
86383;BME280;77029;47.696;10.348;2024-03-23T02:46:17;92928.88;;;5.54;68.42
86383;BME280;77029;47.696;10.348;2024-03-23T02:48:43;92927.97;;;5.59;68.10
86383;BME280;77029;47.696;10.348;2024-03-23T02:51:09;92925.97;;;5.52;68.82
86383;BME280;77029;47.696;10.348;2024-03-23T02:53:35;92923.47;;;5.54;68.47
86383;BME280;77029;47.696;10.348;2024-03-23T02:56:01;92922.75;;;5.61;68.36
86383;BME280;77029;47.696;10.348;2024-03-23T02:58:27;92912.66;;;5.54;68.88
86383;BME280;77029;47.696;10.348;2024-03-23T03:00:53;92920.56;;;5.44;68.36
86383;BME280;77029;47.696;10.348;2024-03-23T03:03:19;92912.13;;;5.48;68.84
86383;BME280;77029;47.696;10.348;2024-03-23T03:05:45;92911.91;;;5.38;68.90
86383;BME280;77029;47.696;10.348;2024-03-23T03:08:11;92910.81;;;5.33;69.03
86383;BME280;77029;47.696;10.348;2024-03-23T03:10:37;92903.28;;;5.39;68.99
86383;BME280;77029;47.696;10.348;2024-03-23T03:13:03;92900.91;;;5.28;69.09
86383;BME280;77029;47.696;10.348;2024-03-23T03:15:29;92896.94;;;5.29;69.63
86383;BME280;77029;47.696;10.348;2024-03-23T03:17:55;92894.22;;;5.22;69.49
86383;BME280;77029;47.696;10.348;2024-03-23T03:20:21;92878.78;;;5.30;69.67
86383;BME280;77029;47.696;10.348;2024-03-23T03:22:49;92878.44;;;5.33;69.10
86383;BME280;77029;47.696;10.348;2024-03-23T03:25:15;92867.63;;;5.33;69.29
86383;BME280;77029;47.696;10.348;2024-03-23T03:27:41;92862.97;;;5.49;68.98
86383;BME280;77029;47.696;10.348;2024-03-23T03:30:07;92854.91;;;5.57;68.67
86383;BME280;77029;47.696;10.348;2024-03-23T03:32:34;92852.38;;;5.51;69.53
86383;BME280;77029;47.696;10.348;2024-03-23T03:35:00;92843.56;;;5.66;68.43
86383;BME280;77029;47.696;10.348;2024-03-23T03:37:27;92844.28;;;5.74;68.08
86383;BME280;77029;47.696;10.348;2024-03-23T03:39:53;92841.75;;;5.76;67.49
86383;BME280;77029;47.696;10.348;2024-03-23T03:42:19;92847.16;;;5.76;67.85
86383;BME280;77029;47.696;10.348;2024-03-23T03:44:45;92834.19;;;5.74;68.16
86383;BME280;77029;47.696;10.348;2024-03-23T03:47:11;92836.53;;;5.78;67.47
86383;BME280;77029;47.696;10.348;2024-03-23T03:49:37;92824.84;;;5.83;67.38
86383;BME280;77029;47.696;10.348;2024-03-23T03:52:03;92823.75;;;5.86;67.42
86383;BME280;77029;47.696;10.348;2024-03-23T03:54:29;92816.56;;;5.89;66.97
86383;BME280;77029;47.696;10.348;2024-03-23T03:56:55;92807.56;;;5.86;67.55
86383;BME280;77029;47.696;10.348;2024-03-23T03:59:21;92799.63;;;5.73;68.01
86383;BME280;77029;47.696;10.348;2024-03-23T04:01:47;92788.13;;;5.57;68.38
86383;BME280;77029;47.696;10.348;2024-03-23T04:04:13;92792.97;;;5.59;69.20
86383;BME280;77029;47.696;10.348;2024-03-23T04:06:39;92782.00;;;5.72;68.49
86383;BME280;77029;47.696;10.348;2024-03-23T04:09:05;92787.41;;;5.64;68.86
86383;BME280;77029;47.696;10.348;2024-03-23T04:11:32;92774.44;;;5.63;68.69
86383;BME280;77029;47.696;10.348;2024-03-23T04:13:58;92780.91;;;5.60;69.16
86383;BME280;77029;47.696;10.348;2024-03-23T04:16:28;92768.66;;;5.74;69.37
86383;BME280;77029;47.696;10.348;2024-03-23T04:18:55;92761.81;;;5.88;68.19
86383;BME280;77029;47.696;10.348;2024-03-23T04:21:24;92758.59;;;5.90;67.66
86383;BME280;77029;47.696;10.348;2024-03-23T04:23:50;92765.59;;;6.00;67.63
86383;BME280;77029;47.696;10.348;2024-03-23T04:26:16;92763.97;;;6.13;68.24
86383;BME280;77029;47.696;10.348;2024-03-23T04:28:42;92761.06;;;6.26;67.50
86383;BME280;77029;47.696;10.348;2024-03-23T04:31:09;92757.44;;;6.31;67.20
86383;BME280;77029;47.696;10.348;2024-03-23T04:33:35;92755.66;;;6.26;67.43
86383;BME280;77029;47.696;10.348;2024-03-23T04:36:01;92760.00;;;6.21;68.09
86383;BME280;77029;47.696;10.348;2024-03-23T04:38:28;92757.69;;;6.10;67.57
86383;BME280;77029;47.696;10.348;2024-03-23T04:40:59;92754.97;;;6.18;67.39
86383;BME280;77029;47.696;10.348;2024-03-23T04:43:26;92760.00;;;6.14;67.55
86383;BME280;77029;47.696;10.348;2024-03-23T04:45:52;92751.38;;;6.07;67.87
86383;BME280;77029;47.696;10.348;2024-03-23T04:48:20;92764.16;;;5.99;68.57
86383;BME280;77029;47.696;10.348;2024-03-23T04:50:47;92759.28;;;5.98;68.48
86383;BME280;77029;47.696;10.348;2024-03-23T04:53:13;92753.00;;;5.95;68.18
86383;BME280;77029;47.696;10.348;2024-03-23T04:55:39;92759.66;;;6.10;68.45
86383;BME280;77029;47.696;10.348;2024-03-23T04:58:05;92743.44;;;6.10;68.10
86383;BME280;77029;47.696;10.348;2024-03-23T05:00:31;92740.91;;;6.12;68.02
86383;BME280;77029;47.696;10.348;2024-03-23T05:02:57;92738.00;;;6.25;67.06
86383;BME280;77029;47.696;10.348;2024-03-23T05:05:23;92731.84;;;6.32;67.31
86383;BME280;77029;47.696;10.348;2024-03-23T05:07:49;92740.13;;;6.34;67.07
86383;BME280;77029;47.696;10.348;2024-03-23T05:10:15;92733.97;;;6.41;66.79
86383;BME280;77029;47.696;10.348;2024-03-23T05:12:42;92725.28;;;6.50;66.93
86383;BME280;77029;47.696;10.348;2024-03-23T05:15:08;92727.81;;;6.48;67.06
86383;BME280;77029;47.696;10.348;2024-03-23T05:17:34;92720.22;;;6.54;67.02
86383;BME280;77029;47.696;10.348;2024-03-23T05:20:02;92717.69;;;6.56;67.22
86383;BME280;77029;47.696;10.348;2024-03-23T05:22:29;92710.09;;;6.62;66.70
86383;BME280;77029;47.696;10.348;2024-03-23T05:24:55;92702.84;;;6.65;66.75
86383;BME280;77029;47.696;10.348;2024-03-23T05:27:21;92698.84;;;6.74;66.72
86383;BME280;77029;47.696;10.348;2024-03-23T05:29:47;92700.50;;;7.01;65.53
86383;BME280;77029;47.696;10.348;2024-03-23T05:32:13;92692.38;;;7.26;64.21
86383;BME280;77029;47.696;10.348;2024-03-23T05:34:39;92676.91;;;7.61;62.41
86383;BME280;77029;47.696;10.348;2024-03-23T05:37:05;92676.56;;;7.99;61.94
86383;BME280;77029;47.696;10.348;2024-03-23T05:39:31;92677.66;;;8.31;62.27
86383;BME280;77029;47.696;10.348;2024-03-23T05:41:57;92675.25;;;8.52;60.24
86383;BME280;77029;47.696;10.348;2024-03-23T05:44:23;92669.00;;;8.77;60.42
86383;BME280;77029;47.696;10.348;2024-03-23T05:46:49;92668.41;;;9.05;59.09
86383;BME280;77029;47.696;10.348;2024-03-23T05:49:16;92669.06;;;9.33;58.10
86383;BME280;77029;47.696;10.348;2024-03-23T05:51:43;92660.81;;;9.50;58.02
86383;BME280;77029;47.696;10.348;2024-03-23T05:54:09;92645.44;;;9.62;56.58
86383;BME280;77029;47.696;10.348;2024-03-23T05:56:35;92647.16;;;9.86;56.63
86383;BME280;77029;47.696;10.348;2024-03-23T05:59:01;92642.88;;;10.03;56.06
86383;BME280;77029;47.696;10.348;2024-03-23T06:01:29;92640.19;;;10.22;54.78
86383;BME280;77029;47.696;10.348;2024-03-23T06:03:58;92621.41;;;10.45;53.08
86383;BME280;77029;47.696;10.348;2024-03-23T06:06:24;92619.66;;;10.69;53.33
86383;BME280;77029;47.696;10.348;2024-03-23T06:08:50;92602.31;;;11.05;51.32
86383;BME280;77029;47.696;10.348;2024-03-23T06:11:16;92594.59;;;11.33;52.04
86383;BME280;77029;47.696;10.348;2024-03-23T06:13:42;92596.19;;;11.57;50.54
86383;BME280;77029;47.696;10.348;2024-03-23T06:16:08;92592.69;;;11.88;51.08
86383;BME280;77029;47.696;10.348;2024-03-23T06:18:34;92588.97;;;12.04;50.64
86383;BME280;77029;47.696;10.348;2024-03-23T06:21:00;92586.69;;;12.22;50.43
86383;BME280;77029;47.696;10.348;2024-03-23T06:23:26;92578.88;;;12.28;50.61
86383;BME280;77029;47.696;10.348;2024-03-23T06:25:52;92570.44;;;12.03;49.36
86383;BME280;77029;47.696;10.348;2024-03-23T06:28:18;92565.50;;;12.11;51.41
86383;BME280;77029;47.696;10.348;2024-03-23T06:30:44;92573.75;;;12.23;50.27
86383;BME280;77029;47.696;10.348;2024-03-23T06:33:10;92578.19;;;12.39;49.24
86383;BME280;77029;47.696;10.348;2024-03-23T06:35:36;92591.72;;;12.37;49.33
86383;BME280;77029;47.696;10.348;2024-03-23T06:38:02;92596.66;;;12.29;50.77
86383;BME280;77029;47.696;10.348;2024-03-23T06:40:28;92598.06;;;12.19;49.71
86383;BME280;77029;47.696;10.348;2024-03-23T06:42:54;92599.38;;;11.96;52.38
86383;BME280;77029;47.696;10.348;2024-03-23T06:45:20;92611.25;;;12.01;51.66
86383;BME280;77029;47.696;10.348;2024-03-23T06:47:49;92633.22;;;11.82;51.14
86383;BME280;77029;47.696;10.348;2024-03-23T06:50:16;92647.97;;;11.57;52.50
86383;BME280;77029;47.696;10.348;2024-03-23T06:52:42;92664.06;;;11.53;52.99
86383;BME280;77029;47.696;10.348;2024-03-23T06:55:08;92673.00;;;11.44;54.46
86383;BME280;77029;47.696;10.348;2024-03-23T06:57:34;92686.41;;;11.30;54.39
86383;BME280;77029;47.696;10.348;2024-03-23T07:00:00;92715.78;;;11.32;53.76
86383;BME280;77029;47.696;10.348;2024-03-23T07:02:26;92716.38;;;11.21;55.58
86383;BME280;77029;47.696;10.348;2024-03-23T07:04:52;92695.44;;;11.33;56.17
86383;BME280;77029;47.696;10.348;2024-03-23T07:07:18;92694.44;;;11.59;55.55
86383;BME280;77029;47.696;10.348;2024-03-23T07:09:44;92712.06;;;11.68;55.54
86383;BME280;77029;47.696;10.348;2024-03-23T07:12:10;92731.31;;;11.20;58.26
86383;BME280;77029;47.696;10.348;2024-03-23T07:14:36;92739.25;;;10.96;59.44
86383;BME280;77029;47.696;10.348;2024-03-23T07:17:02;92733.41;;;10.71;61.51
86383;BME280;77029;47.696;10.348;2024-03-23T07:19:28;92741.16;;;10.65;61.60
86383;BME280;77029;47.696;10.348;2024-03-23T07:21:54;92752.88;;;10.38;63.56
86383;BME280;77029;47.696;10.348;2024-03-23T07:24:20;92773.34;;;10.20;64.48
86383;BME280;77029;47.696;10.348;2024-03-23T07:26:46;92791.16;;;10.04;66.71
86383;BME280;77029;47.696;10.348;2024-03-23T07:29:13;92810.59;;;9.90;68.39
86383;BME280;77029;47.696;10.348;2024-03-23T07:31:39;92813.44;;;9.83;68.16
86383;BME280;77029;47.696;10.348;2024-03-23T07:34:05;92821.75;;;9.31;70.56
86383;BME280;77029;47.696;10.348;2024-03-23T07:36:31;92835.75;;;9.27;72.08
86383;BME280;77029;47.696;10.348;2024-03-23T07:38:57;92832.75;;;9.06;73.18
86383;BME280;77029;47.696;10.348;2024-03-23T07:41:23;92850.38;;;9.15;73.42
86383;BME280;77029;47.696;10.348;2024-03-23T07:43:49;92863.03;;;9.03;73.45
86383;BME280;77029;47.696;10.348;2024-03-23T07:46:16;92840.50;;;8.92;74.08
86383;BME280;77029;47.696;10.348;2024-03-23T07:48:42;92868.34;;;8.58;74.14
86383;BME280;77029;47.696;10.348;2024-03-23T07:51:10;92865.66;;;8.76;74.32
86383;BME280;77029;47.696;10.348;2024-03-23T07:53:37;92856.53;;;8.63;74.47
86383;BME280;77029;47.696;10.348;2024-03-23T07:56:08;92869.94;;;8.44;74.73
86383;BME280;77029;47.696;10.348;2024-03-23T07:58:36;92883.34;;;8.42;75.32
86383;BME280;77029;47.696;10.348;2024-03-23T08:01:07;92884.94;;;8.20;76.03
86383;BME280;77029;47.696;10.348;2024-03-23T08:03:37;92896.50;;;8.21;76.14
86383;BME280;77029;47.696;10.348;2024-03-23T08:08:39;92900.16;;;8.16;76.38
86383;BME280;77029;47.696;10.348;2024-03-23T08:11:06;92902.16;;;8.15;76.40
86383;BME280;77029;47.696;10.348;2024-03-23T08:13:33;92906.47;;;7.93;76.54
86383;BME280;77029;47.696;10.348;2024-03-23T08:16:01;92904.91;;;8.08;76.83
86383;BME280;77029;47.696;10.348;2024-03-23T08:18:28;92908.84;;;8.14;76.45
86383;BME280;77029;47.696;10.348;2024-03-23T08:23:25;92895.28;;;7.89;76.97
86383;BME280;77029;47.696;10.348;2024-03-23T08:25:51;92896.72;;;7.90;77.08
86383;BME280;77029;47.696;10.348;2024-03-23T08:28:18;92914.75;;;7.95;76.90
86383;BME280;77029;47.696;10.348;2024-03-23T08:30:44;92919.06;;;7.98;77.05
86383;BME280;77029;47.696;10.348;2024-03-23T08:33:10;92929.25;;;7.90;77.54
86383;BME280;77029;47.696;10.348;2024-03-23T08:35:36;92936.09;;;7.91;77.20
86383;BME280;77029;47.696;10.348;2024-03-23T08:38:02;92921.28;;;7.92;77.53
86383;BME280;77029;47.696;10.348;2024-03-23T08:40:28;92928.56;;;7.82;77.73
86383;BME280;77029;47.696;10.348;2024-03-23T08:42:54;92917.31;;;7.93;77.01
86383;BME280;77029;47.696;10.348;2024-03-23T08:45:20;92923.00;;;8.05;77.69
86383;BME280;77029;47.696;10.348;2024-03-23T08:47:46;92922.78;;;7.78;77.51
86383;BME280;77029;47.696;10.348;2024-03-23T08:50:12;92926.53;;;7.58;78.25
86383;BME280;77029;47.696;10.348;2024-03-23T08:52:38;92931.06;;;7.88;78.12
86383;BME280;77029;47.696;10.348;2024-03-23T08:55:05;92936.09;;;7.91;77.39
86383;BME280;77029;47.696;10.348;2024-03-23T08:57:31;92917.75;;;7.82;77.90
86383;BME280;77029;47.696;10.348;2024-03-23T08:59:57;92927.13;;;7.81;78.00
86383;BME280;77029;47.696;10.348;2024-03-23T09:02:23;92917.38;;;7.78;77.70
86383;BME280;77029;47.696;10.348;2024-03-23T09:04:49;92907.06;;;7.84;77.48
86383;BME280;77029;47.696;10.348;2024-03-23T09:07:15;92915.94;;;7.77;77.19
86383;BME280;77029;47.696;10.348;2024-03-23T09:09:41;92910.50;;;7.85;77.43
86383;BME280;77029;47.696;10.348;2024-03-23T09:12:07;92906.84;;;7.90;77.86
86383;BME280;77029;47.696;10.348;2024-03-23T09:14:33;92913.66;;;7.98;77.16
86383;BME280;77029;47.696;10.348;2024-03-23T09:17:00;92914.44;;;7.91;77.13
86383;BME280;77029;47.696;10.348;2024-03-23T09:19:29;92936.31;;;7.86;77.59
86383;BME280;77029;47.696;10.348;2024-03-23T09:21:55;92982.19;;;7.91;77.72
86383;BME280;77029;47.696;10.348;2024-03-23T09:24:21;93047.56;;;7.40;77.81
86383;BME280;77029;47.696;10.348;2024-03-23T09:26:48;93049.97;;;6.75;75.89
86383;BME280;77029;47.696;10.348;2024-03-23T09:29:14;93045.81;;;6.66;75.20
86383;BME280;77029;47.696;10.348;2024-03-23T09:31:40;93045.25;;;6.45;75.05
86383;BME280;77029;47.696;10.348;2024-03-23T09:34:06;93049.06;;;6.72;75.94
86383;BME280;77029;47.696;10.348;2024-03-23T09:36:32;93059.16;;;6.49;75.99
86383;BME280;77029;47.696;10.348;2024-03-23T09:38:58;93056.47;;;6.64;76.33
86383;BME280;77029;47.696;10.348;2024-03-23T09:41:24;93070.34;;;6.61;76.12
86383;BME280;77029;47.696;10.348;2024-03-23T09:43:53;93072.84;;;6.59;75.30
86383;BME280;77029;47.696;10.348;2024-03-23T09:46:20;93073.19;;;6.32;76.30
86383;BME280;77029;47.696;10.348;2024-03-23T09:48:46;93078.59;;;6.32;77.10
86383;BME280;77029;47.696;10.348;2024-03-23T09:51:12;93071.41;;;6.50;76.21
86383;BME280;77029;47.696;10.348;2024-03-23T09:53:38;93079.69;;;6.37;77.66
86383;BME280;77029;47.696;10.348;2024-03-23T09:56:05;93085.63;;;6.35;77.03
86383;BME280;77029;47.696;10.348;2024-03-23T09:58:31;93095.19;;;6.44;76.36
86383;BME280;77029;47.696;10.348;2024-03-23T10:01:00;93087.28;;;6.46;75.70
86383;BME280;77029;47.696;10.348;2024-03-23T10:03:26;93083.66;;;6.44;76.56
86383;BME280;77029;47.696;10.348;2024-03-23T10:06:02;93080.44;;;6.60;75.87
86383;BME280;77029;47.696;10.348;2024-03-23T10:08:29;93111.81;;;6.63;75.63
86383;BME280;77029;47.696;10.348;2024-03-23T10:11:12;93111.72;;;6.25;75.98
86383;BME280;77029;47.696;10.348;2024-03-23T10:13:44;93115.03;;;6.54;74.85
86383;BME280;77029;47.696;10.348;2024-03-23T10:16:12;93114.69;;;6.65;74.41
86383;BME280;77029;47.696;10.348;2024-03-23T10:18:46;93111.84;;;6.86;74.91
86383;BME280;77029;47.696;10.348;2024-03-23T10:21:12;93121.00;;;6.60;74.42
86383;BME280;77029;47.696;10.348;2024-03-23T10:23:40;93130.91;;;6.50;75.15
86383;BME280;77029;47.696;10.348;2024-03-23T10:28:58;93143.16;;;6.44;75.71
86383;BME280;77029;47.696;10.348;2024-03-23T10:31:28;93149.75;;;6.20;75.13
86383;BME280;77029;47.696;10.348;2024-03-23T10:33:55;93144.44;;;6.06;76.54
86383;BME280;77029;47.696;10.348;2024-03-23T10:36:22;93152.50;;;6.35;75.40
86383;BME280;77029;47.696;10.348;2024-03-23T10:38:52;93159.34;;;6.36;75.48
86383;BME280;77029;47.696;10.348;2024-03-23T10:41:18;93153.47;;;6.09;75.03
86383;BME280;77029;47.696;10.348;2024-03-23T10:43:47;93158.22;;;6.24;75.36
86383;BME280;77029;47.696;10.348;2024-03-23T10:46:14;93147.34;;;6.09;75.00
86383;BME280;77029;47.696;10.348;2024-03-23T10:48:40;93153.53;;;6.24;75.13
86383;BME280;77029;47.696;10.348;2024-03-23T10:51:08;93164.53;;;5.90;75.58
86383;BME280;77029;47.696;10.348;2024-03-23T10:53:35;93158.25;;;5.95;75.01
86383;BME280;77029;47.696;10.348;2024-03-23T10:56:04;93160.09;;;6.00;75.13
86383;BME280;77029;47.696;10.348;2024-03-23T10:58:46;93151.47;;;5.73;75.28
86383;BME280;77029;47.696;10.348;2024-03-23T11:01:13;93153.25;;;5.71;75.44
86383;BME280;77029;47.696;10.348;2024-03-23T11:03:44;93155.13;;;5.84;74.74
86383;BME280;77029;47.696;10.348;2024-03-23T11:06:34;93159.78;;;5.83;75.03
86383;BME280;77029;47.696;10.348;2024-03-23T11:09:01;93148.22;;;5.75;73.91
86383;BME280;77029;47.696;10.348;2024-03-23T11:11:27;93149.97;;;5.65;74.93
86383;BME280;77029;47.696;10.348;2024-03-23T11:13:54;93155.31;;;5.57;75.20
86383;BME280;77029;47.696;10.348;2024-03-23T11:16:27;93133.75;;;5.65;73.09
86383;BME280;77029;47.696;10.348;2024-03-23T11:19:34;93134.06;;;5.54;74.25
86383;BME280;77029;47.696;10.348;2024-03-23T11:22:02;93120.44;;;5.95;74.15
86383;BME280;77029;47.696;10.348;2024-03-23T11:24:29;93130.94;;;6.06;74.11
86383;BME280;77029;47.696;10.348;2024-03-23T11:26:55;93130.00;;;6.04;72.85
86383;BME280;77029;47.696;10.348;2024-03-23T11:29:21;93130.19;;;6.06;73.62
86383;BME280;77029;47.696;10.348;2024-03-23T11:31:52;93140.09;;;6.03;73.15
86383;BME280;77029;47.696;10.348;2024-03-23T11:34:19;93132.28;;;6.28;74.01
86383;BME280;77029;47.696;10.348;2024-03-23T11:36:47;93130.63;;;6.18;73.46
86383;BME280;77029;47.696;10.348;2024-03-23T11:39:13;93127.59;;;6.29;72.99
86383;BME280;77029;47.696;10.348;2024-03-23T11:42:00;93125.97;;;6.26;73.71
86383;BME280;77029;47.696;10.348;2024-03-23T11:44:29;93118.31;;;6.60;73.44
86383;BME280;77029;47.696;10.348;2024-03-23T11:47:07;93112.59;;;6.94;72.91
86383;BME280;77029;47.696;10.348;2024-03-23T11:49:33;93112.94;;;7.21;71.25
86383;BME280;77029;47.696;10.348;2024-03-23T11:52:07;93121.91;;;7.62;71.79
86383;BME280;77029;47.696;10.348;2024-03-23T11:54:33;93125.31;;;7.70;71.29
86383;BME280;77029;47.696;10.348;2024-03-23T11:57:01;93124.75;;;7.79;69.76
86383;BME280;77029;47.696;10.348;2024-03-23T11:59:37;93123.53;;;7.65;70.39
86383;BME280;77029;47.696;10.348;2024-03-23T12:02:08;93122.44;;;7.83;69.59
86383;BME280;77029;47.696;10.348;2024-03-23T12:04:36;93118.28;;;7.67;69.86
86383;BME280;77029;47.696;10.348;2024-03-23T12:07:21;93122.63;;;7.62;69.60
86383;BME280;77029;47.696;10.348;2024-03-23T12:10:02;93115.00;;;7.91;70.30
86383;BME280;77029;47.696;10.348;2024-03-23T12:12:29;93118.81;;;7.73;69.48
86383;BME280;77029;47.696;10.348;2024-03-23T12:15:05;93120.88;;;7.19;69.80
86383;BME280;77029;47.696;10.348;2024-03-23T12:17:32;93110.41;;;7.39;70.23
86383;BME280;77029;47.696;10.348;2024-03-23T12:19:58;93114.22;;;7.20;71.37
86383;BME280;77029;47.696;10.348;2024-03-23T12:22:24;93129.16;;;6.91;70.31
86383;BME280;77029;47.696;10.348;2024-03-23T12:24:51;93114.91;;;6.90;71.34
86383;BME280;77029;47.696;10.348;2024-03-23T12:27:17;93122.13;;;6.88;70.58
86383;BME280;77029;47.696;10.348;2024-03-23T12:29:43;93114.34;;;6.61;71.61
86383;BME280;77029;47.696;10.348;2024-03-23T12:32:12;93123.19;;;6.69;72.38
86383;BME280;77029;47.696;10.348;2024-03-23T12:34:38;93114.03;;;7.03;70.97
86383;BME280;77029;47.696;10.348;2024-03-23T12:37:04;93107.88;;;7.25;71.56
86383;BME280;77029;47.696;10.348;2024-03-23T12:39:32;93101.75;;;7.10;71.29
86383;BME280;77029;47.696;10.348;2024-03-23T12:41:58;93087.63;;;7.49;69.43
86383;BME280;77029;47.696;10.348;2024-03-23T12:44:24;93072.84;;;7.43;69.15
86383;BME280;77029;47.696;10.348;2024-03-23T12:46:50;93081.50;;;7.49;69.46
86383;BME280;77029;47.696;10.348;2024-03-23T12:49:16;93070.47;;;7.47;68.78
86383;BME280;77029;47.696;10.348;2024-03-23T12:51:56;93074.38;;;7.84;68.95
86383;BME280;77029;47.696;10.348;2024-03-23T12:54:23;93067.69;;;7.77;67.90
86383;BME280;77029;47.696;10.348;2024-03-23T12:56:50;93063.09;;;8.03;68.97
86383;BME280;77029;47.696;10.348;2024-03-23T12:59:17;93051.06;;;7.73;66.11
86383;BME280;77029;47.696;10.348;2024-03-23T13:01:44;93036.25;;;7.74;66.84
86383;BME280;77029;47.696;10.348;2024-03-23T13:04:11;93035.72;;;7.76;65.75
86383;BME280;77029;47.696;10.348;2024-03-23T13:06:37;93056.81;;;7.92;65.39
86383;BME280;77029;47.696;10.348;2024-03-23T13:09:04;93053.41;;;8.24;66.66
86383;BME280;77029;47.696;10.348;2024-03-23T13:11:51;93056.34;;;8.11;65.17
86383;BME280;77029;47.696;10.348;2024-03-23T13:14:19;93051.81;;;8.14;63.92
86383;BME280;77029;47.696;10.348;2024-03-23T13:16:46;93048.16;;;7.86;62.77
86383;BME280;77029;47.696;10.348;2024-03-23T13:19:12;93033.84;;;7.93;65.41
86383;BME280;77029;47.696;10.348;2024-03-23T13:21:38;93033.69;;;7.91;63.32
86383;BME280;77029;47.696;10.348;2024-03-23T13:24:05;93015.63;;;7.86;62.67
86383;BME280;77029;47.696;10.348;2024-03-23T13:26:31;93006.84;;;8.11;64.16
86383;BME280;77029;47.696;10.348;2024-03-23T13:28:57;93005.19;;;8.15;62.17
86383;BME280;77029;47.696;10.348;2024-03-23T13:31:23;92998.81;;;8.20;63.65
86383;BME280;77029;47.696;10.348;2024-03-23T13:33:49;92992.94;;;8.39;61.87
86383;BME280;77029;47.696;10.348;2024-03-23T13:36:15;92977.88;;;8.71;62.07
86383;BME280;77029;47.696;10.348;2024-03-23T13:38:41;92979.19;;;8.87;60.95
86383;BME280;77029;47.696;10.348;2024-03-23T13:41:07;92971.69;;;8.78;58.90
86383;BME280;77029;47.696;10.348;2024-03-23T13:43:34;92964.47;;;8.73;59.30
86383;BME280;77029;47.696;10.348;2024-03-23T13:46:00;92964.34;;;8.88;60.77
86383;BME280;77029;47.696;10.348;2024-03-23T13:48:27;92970.28;;;9.29;60.11
86383;BME280;77029;47.696;10.348;2024-03-23T13:50:59;92964.50;;;8.90;57.46
86383;BME280;77029;47.696;10.348;2024-03-23T13:53:25;92955.50;;;9.05;57.04
86383;BME280;77029;47.696;10.348;2024-03-23T13:55:51;92965.53;;;8.77;57.56
86383;BME280;77029;47.696;10.348;2024-03-23T13:58:18;92965.38;;;8.50;57.40
86383;BME280;77029;47.696;10.348;2024-03-23T14:00:44;92972.78;;;8.75;60.17